22.7°F
Current conditions from King Hill
Updated every 5 minutes
 
  Sunday December 21, 2014

Station Historical Data
Daily Summary for April 18, 2011 Units:  Metric    English   Both
« Previous Day
Next Day »
Daily Weekly Monthly Yearly Custom
  High: Low: Average:
Temperature: 7.9 °C 0.6 °C 3.3 °C
Dew Point: 0.3 °C -5.3 °C -2.9 °C
Humidity: 78% 49% 64%
Wind Speed: 20.9km/h 1.6km/h 9km/h
Wind Gust: 35.4km/h - -
Wind- - West
Pressure: 1015.5 hPa 1002.3 hPa -
Precipitation: 0.3 mm    
Historical Graphs
 
 
Tabular Data for April 18, 2011
Time Temperature Dew Point Pressure Wind Wind Speed Wind Gust Humidity Daily Rainfall
00:00 2.2 °C -3.7 °C 1002.3 hPa WSW 9.7 km/h 19.3 km/h 65% 12.7 mm
00:10 2.2 °C -3.7 °C 1002.3 hPa WSW 8 km/h 22.5 km/h 65% 0 mm
00:15 2.2 °C -3.7 °C 1002.3 hPa WSW 9.7 km/h 25.7 km/h 65% 0 mm
00:20 2.2 °C -3.7 °C 1002.3 hPa WSW 6.4 km/h 25.7 km/h 65% 0 mm
00:25 2.1 °C -4 °C 1002.3 hPa West 11.3 km/h 27.4 km/h 64% 0 mm
00:30 2.1 °C -4.1 °C 1002.6 hPa WSW 9.7 km/h 27.4 km/h 64% 0 mm
00:35 2.1 °C -4.1 °C 1002.6 hPa WSW 11.3 km/h 22.5 km/h 64% 0 mm
00:40 2 °C -3.9 °C 1002.6 hPa SW 8 km/h 22.5 km/h 65% 0 mm
00:45 2 °C -4.3 °C 1002.6 hPa WSW 14.5 km/h 24.1 km/h 63% 0 mm
00:50 2.1 °C -4.4 °C 1002.6 hPa WSW 11.3 km/h 24.1 km/h 62% 0 mm
00:55 2 °C -4.1 °C 1002.6 hPa SW 6.4 km/h 22.5 km/h 64% 0 mm
01:00 1.9 °C -4.6 °C 1002.6 hPa WSW 9.7 km/h 17.7 km/h 62% 0 mm
01:05 1.9 °C -4.3 °C 1002.6 hPa SW 9.7 km/h 17.7 km/h 63% 0 mm
01:10 1.9 °C -4.3 °C 1002.6 hPa WSW 6.4 km/h 17.7 km/h 63% 0 mm
01:15 1.9 °C -4.6 °C 1002.6 hPa WSW 12.9 km/h 22.5 km/h 62% 0 mm
01:20 1.9 °C -4.3 °C 1002.6 hPa WSW 9.7 km/h 22.5 km/h 63% 0 mm
01:25 1.9 °C -4.2 °C 1002.6 hPa WSW 6.4 km/h 19.3 km/h 64% 0 mm
01:30 1.8 °C -4.3 °C 1002.9 hPa West 9.7 km/h 22.5 km/h 64% 0 mm
01:35 1.8 °C -4.3 °C 1002.9 hPa WSW 11.3 km/h 22.5 km/h 64% 0 mm
01:40 1.6 °C -3.1 °C 1002.9 hPa NW 8 km/h 22.5 km/h 71% 0 mm
01:45 1.2 °C -2.9 °C 1002.9 hPa WNW 4.8 km/h 20.9 km/h 74% 0 mm
01:50 1.1 °C -2.9 °C 1002.9 hPa Calm   11.3 km/h 75% 0 mm
01:55 0.9 °C -2.8 °C 1002.9 hPa Calm   9.7 km/h 76% 0 mm
02:00 0.8 °C -2.6 °C 1002.9 hPa Calm   1.6 km/h 78% 0 mm
02:05 0.7 °C -2.7 °C 1003.3 hPa NW 1.6 km/h 8 km/h 78% 0 mm
02:10 0.6 °C -2.9 °C 1003.3 hPa Calm   8 km/h 77% 0 mm
02:15 0.7 °C -2.9 °C 1003.3 hPa NW 1.6 km/h 6.4 km/h 77% 0 mm
02:20 0.7 °C -2.8 °C 1003.3 hPa West 3.2 km/h 12.9 km/h 77% 0 mm
02:25 0.9 °C -3.2 °C 1003.3 hPa West 6.4 km/h 16.1 km/h 74% 0 mm
02:35 1.2 °C -3.1 °C 1003.9 hPa WNW 9.7 km/h 33.8 km/h 73% 0 mm
02:40 1 °C -2.6 °C 1003.6 hPa NW 11.3 km/h 33.8 km/h 77% 0 mm
02:45 0.7 °C -2.8 °C 1003.9 hPa West 6.4 km/h 20.9 km/h 77% 0 mm
02:50 0.7 °C -2.7 °C 1003.9 hPa West 11.3 km/h 30.6 km/h 78% 0 mm
02:55 0.7 °C -2.7 °C 1003.6 hPa WSW 9.7 km/h 30.6 km/h 78% 0 mm
03:00 0.7 °C -2.9 °C 1003.9 hPa SW 11.3 km/h 30.6 km/h 77% 0 mm
03:05 0.6 °C -3.1 °C 1003.9 hPa WSW 11.3 km/h 33.8 km/h 76% 0 mm
03:10 0.6 °C -3.1 °C 1003.9 hPa WSW 11.3 km/h 33.8 km/h 76% 0 mm
03:15 0.6 °C -3.3 °C 1003.9 hPa WSW 9.7 km/h 29 km/h 75% 0 mm
03:20 0.6 °C -3.3 °C 1003.9 hPa WSW 12.9 km/h 29 km/h 75% 0 mm
03:30 0.8 °C -3.5 °C 1003.9 hPa WSW 12.9 km/h 29 km/h 73% 0 mm
03:35 0.8 °C -3.8 °C 1004.3 hPa WSW 12.9 km/h 27.4 km/h 71% 0 mm
03:40 0.9 °C -3.8 °C 1004.3 hPa WSW 12.9 km/h 27.4 km/h 71% 0 mm
03:45 0.9 °C -3.8 °C 1004.3 hPa WSW 8 km/h 25.7 km/h 71% 0 mm
03:50 0.9 °C -3.7 °C 1004.3 hPa WSW 8 km/h 27.4 km/h 71% 0 mm
03:55 0.9 °C -3.6 °C 1004.6 hPa WSW 6.4 km/h 27.4 km/h 72% 0 mm
04:00 0.8 °C -3.4 °C 1004.6 hPa WSW 9.7 km/h 22.5 km/h 73% 0 mm
04:05 0.8 °C -3.7 °C 1004.6 hPa WSW 9.7 km/h 16.1 km/h 72% 0 mm
04:10 0.8 °C -3.7 °C 1004.6 hPa SW 9.7 km/h 20.9 km/h 72% 0 mm
04:15 0.8 °C -3.7 °C 1004.6 hPa WSW 9.7 km/h 27.4 km/h 72% 0 mm
04:20 0.8 °C -3.7 °C 1004.6 hPa WSW 8 km/h 27.4 km/h 72% 0 mm
04:25 0.8 °C -3.8 °C 1004.6 hPa WSW 11.3 km/h 17.7 km/h 71% 0 mm
04:30 0.9 °C -3.6 °C 1005 hPa SW 11.3 km/h 19.3 km/h 72% 0 mm
04:35 0.9 °C -3.7 °C 1005 hPa WSW 9.7 km/h 24.1 km/h 71% 0 mm
04:40 1 °C -4.1 °C 1005 hPa WSW 14.5 km/h 25.7 km/h 69% 0 mm
04:45 1.1 °C -3.9 °C 1005 hPa WSW 9.7 km/h 25.7 km/h 69% 0 mm
04:50 1.2 °C -4.1 °C 1005 hPa WSW 12.9 km/h 33.8 km/h 68% 0 mm
04:55 1.2 °C -4.1 °C 1005 hPa West 14.5 km/h 33.8 km/h 68% 0 mm
05:00 1.3 °C -4.2 °C 1005.3 hPa WSW 9.7 km/h 27.4 km/h 67% 0 mm
05:05 1.3 °C -4.2 °C 1005.3 hPa West 12.9 km/h 27.4 km/h 67% 0 mm
05:10 1.3 °C -4.2 °C 1005.3 hPa West 12.9 km/h 27.4 km/h 67% 0 mm
05:15 1.3 °C -4.1 °C 1005.6 hPa West 14.5 km/h 32.2 km/h 67% 0 mm
05:20 1.2 °C -4.1 °C 1005.6 hPa WNW 11.3 km/h 32.2 km/h 68% 0 mm
05:25 1.1 °C -3.6 °C 1006 hPa NW 11.3 km/h 20.9 km/h 71% 0 mm
05:30 0.8 °C -3.4 °C 1006 hPa WNW 8 km/h 22.5 km/h 73% 0 mm
05:35 0.7 °C -3.6 °C 1006 hPa WSW 6.4 km/h 22.5 km/h 73% 0 mm
05:40 0.7 °C -3.7 °C 1006.3 hPa WNW 12.9 km/h 27.4 km/h 72% 0 mm
05:45 0.7 °C -3.7 °C 1006.3 hPa West 14.5 km/h 32.2 km/h 72% 0 mm
05:50 0.7 °C -4.1 °C 1006.3 hPa West 19.3 km/h 32.2 km/h 70% 0 mm
05:55 0.7 °C -4 °C 1006.3 hPa West 8 km/h 29 km/h 71% 0 mm
06:00 0.7 °C -4 °C 1006.7 hPa West 8 km/h 19.3 km/h 71% 0 mm
06:05 0.7 °C -4.2 °C 1006.7 hPa WSW 8 km/h 19.3 km/h 70% 0 mm
06:10 0.7 °C -4 °C 1006.7 hPa West 8 km/h 19.3 km/h 71% 0 mm
06:15 0.7 °C -4.2 °C 1006.7 hPa WNW 9.7 km/h 16.1 km/h 70% 0 mm
06:20 0.7 °C -4.2 °C 1007 hPa West 4.8 km/h 16.1 km/h 70% 0 mm
06:25 0.7 °C -4 °C 1007 hPa West 8 km/h 17.7 km/h 71% 0 mm
06:30 0.7 °C -4 °C 1007 hPa West 9.7 km/h 17.7 km/h 71% 0 mm
06:35 0.7 °C -3.8 °C 1007 hPa WSW 4.8 km/h 14.5 km/h 72% 0 mm
06:40 0.7 °C -4 °C 1007.3 hPa SW 6.4 km/h 14.5 km/h 71% 0 mm
06:45 0.7 °C -3.7 °C 1007.3 hPa SW 8 km/h 16.1 km/h 72% 0 mm
06:50 0.8 °C -4.1 °C 1007.3 hPa WSW 9.7 km/h 16.1 km/h 70% 0 mm
06:55 0.8 °C -3.9 °C 1007.3 hPa West 8 km/h 17.7 km/h 71% 0 mm
07:00 0.8 °C -3.8 °C 1007.7 hPa WSW 8 km/h 17.7 km/h 71% 0 mm
07:05 0.8 °C -3.8 °C 1007.7 hPa West 9.7 km/h 20.9 km/h 71% 0 mm
07:10 0.9 °C -3.9 °C 1007.7 hPa West 6.4 km/h 20.9 km/h 70% 0 mm
07:15 0.9 °C -4.1 °C 1008 hPa West 12.9 km/h 22.5 km/h 69% 0 mm
07:20 0.9 °C -3.9 °C 1008 hPa West 9.7 km/h 22.5 km/h 70% 0 mm
07:25 0.9 °C -4.1 °C 1008 hPa WNW 12.9 km/h 19.3 km/h 69% 0 mm
07:30 0.9 °C -4.3 °C 1008.4 hPa NW 12.9 km/h 22.5 km/h 68% 0 mm
07:35 0.9 °C -4.3 °C 1008.4 hPa WNW 6.4 km/h 33.8 km/h 68% 0 mm
07:40 0.9 °C -4.7 °C 1008.7 hPa West 12.9 km/h 33.8 km/h 66% 0 mm
07:45 0.9 °C -4.9 °C 1008.7 hPa WSW 19.3 km/h 35.4 km/h 65% 0 mm
07:50 0.9 °C -5.2 °C 1009 hPa WSW 17.7 km/h 35.4 km/h 64% 0 mm
07:55 0.8 °C -5 °C 1009 hPa West 11.3 km/h 33.8 km/h 65% 0 mm
08:00 0.8 °C -5 °C 1009 hPa West 14.5 km/h 32.2 km/h 65% 0 mm
08:05 0.8 °C -5.2 °C 1009 hPa West 17.7 km/h 32.2 km/h 64% 0 mm
08:10 0.9 °C -5.3 °C 1009 hPa WNW 20.9 km/h 33.8 km/h 63% 0 mm
08:15 0.9 °C -5.3 °C 1009 hPa WNW 14.5 km/h 33.8 km/h 63% 0 mm
08:20 0.9 °C -5.3 °C 1009.4 hPa WSW 11.3 km/h 32.2 km/h 63% 0 mm
08:25 0.9 °C -5.1 °C 1009.4 hPa West 14.5 km/h 32.2 km/h 64% 0 mm
08:30 1 °C -5.1 °C 1009.4 hPa WNW 9.7 km/h 33.8 km/h 64% 0 mm
08:35 1.1 °C -5 °C 1009.4 hPa WNW 16.1 km/h 33.8 km/h 64% 0 mm
08:40 1.1 °C -4.9 °C 1009.4 hPa West 12.9 km/h 25.7 km/h 64% 0 mm
08:45 1.2 °C -4.9 °C 1009.7 hPa WSW 12.9 km/h 27.4 km/h 64% 0 mm
08:50 1.2 °C -4.6 °C 1009.7 hPa West 11.3 km/h 27.4 km/h 65% 0 mm
08:55 1.2 °C -4.6 °C 1009.7 hPa WSW 11.3 km/h 27.4 km/h 65% 0 mm
09:00 1.3 °C -4.1 °C 1009.7 hPa WSW 6.4 km/h 27.4 km/h 67% 0 mm
09:05 1.3 °C -4.3 °C 1010 hPa WSW 11.3 km/h 25.7 km/h 66% 0 mm
09:10 1.3 °C -4.5 °C 1010 hPa WSW 11.3 km/h 22.5 km/h 65% 0 mm
09:15 1.3 °C -4.5 °C 1010 hPa West 11.3 km/h 33.8 km/h 65% 0 mm
09:20 1.7 °C -3.8 °C 1010 hPa WSW 12.9 km/h 33.8 km/h 67% 0 mm
09:25 1.7 °C -4.2 °C 1010 hPa West 11.3 km/h 25.7 km/h 65% 0 mm
09:30 1.6 °C -4.3 °C 1010.4 hPa WSW 16.1 km/h 29 km/h 65% 0 mm
09:35 1.5 °C -4.6 °C 1010 hPa West 14.5 km/h 29 km/h 64% 0 mm
09:40 1.6 °C -4.1 °C 1010.4 hPa WSW 8 km/h 27.4 km/h 66% 0 mm
09:45 1.7 °C -3.9 °C 1010.4 hPa WNW 12.9 km/h 27.4 km/h 66% 0 mm
09:50 1.7 °C -4 °C 1010.4 hPa West 9.7 km/h 27.4 km/h 66% 0 mm
09:55 1.7 °C -4.2 °C 1010.4 hPa SW 11.3 km/h 22.5 km/h 65% 0 mm
10:00 1.7 °C -3.9 °C 1010.4 hPa West 12.9 km/h 24.1 km/h 66% 0 mm
10:05 1.7 °C -3.9 °C 1010.7 hPa West 14.5 km/h 29 km/h 66% 0 mm
10:10 1.7 °C -4.3 °C 1010.7 hPa West 17.7 km/h 32.2 km/h 64% 0 mm
10:15 1.9 °C -3.7 °C 1010.7 hPa WSW 9.7 km/h 32.2 km/h 66% 0 mm
10:20 2.3 °C -3.2 °C 1010.7 hPa WSW 11.3 km/h 25.7 km/h 67% 0 mm
10:25 2.3 °C -3.6 °C 1010.7 hPa West 11.3 km/h 27.4 km/h 65% 0 mm
10:30 2.1 °C -3.8 °C 1010.7 hPa WSW 9.7 km/h 29 km/h 65% 0 mm
10:35 1.9 °C -3.7 °C 1010.7 hPa West 8 km/h 29 km/h 66% 0 mm
10:45 2.2 °C -3.3 °C 1010.7 hPa West 8 km/h 24.1 km/h 67% 0 mm
10:50 2.4 °C -3.3 °C 1010.7 hPa WNW 11.3 km/h 24.1 km/h 66% 0 mm
10:55 2.3 °C -3.8 °C 1010.7 hPa WSW 12.9 km/h 25.7 km/h 64% 0 mm
11:00 2.2 °C -3.5 °C 1010.7 hPa West 9.7 km/h 25.7 km/h 66% 0 mm
11:05 2.5 °C -3.6 °C 1010.7 hPa WSW 6.4 km/h 25.7 km/h 64% 0 mm
11:10 2.4 °C -3.7 °C 1010.7 hPa West 12.9 km/h 17.7 km/h 64% 0 mm
11:15 2.4 °C -3.4 °C 1011.1 hPa West 8 km/h 17.7 km/h 65% 0 mm
11:20 2.4 °C -3.7 °C 1011.1 hPa West 14.5 km/h 24.1 km/h 64% 0 mm
11:25 2.5 °C -3.8 °C 1011.4 hPa West 9.7 km/h 24.1 km/h 63% 0 mm
11:30 2.6 °C -3.6 °C 1011.4 hPa SW 8 km/h 22.5 km/h 64% 0 mm
11:35 2.6 °C -3.6 °C 1011.4 hPa WSW 8 km/h 22.5 km/h 64% 0 mm
11:40 2.8 °C -3.3 °C 1011.7 hPa WSW 11.3 km/h 20.9 km/h 64% 0 mm
11:45 2.8 °C -3.5 °C 1011.7 hPa West 9.7 km/h 20.9 km/h 63% 0 mm
11:50 3.1 °C -3.1 °C 1011.7 hPa WNW 12.9 km/h 20.9 km/h 64% 0 mm
11:55 3.1 °C -3.3 °C 1011.4 hPa WNW 11.3 km/h 20.9 km/h 63% 0 mm
12:00 3 °C -3.3 °C 1011.7 hPa WNW 9.7 km/h 17.7 km/h 63% 0 mm
12:05 2.9 °C -3.7 °C 1011.7 hPa NW 14.5 km/h 29 km/h 62% 0 mm
12:10 2.9 °C -3.4 °C 1011.7 hPa WNW 12.9 km/h 29 km/h 63% 0 mm
12:15 3.1 °C -2.8 °C 1011.7 hPa West 4.8 km/h 29 km/h 65% 0 mm
12:20 3.4 °C -2.8 °C 1011.7 hPa West 11.3 km/h 24.1 km/h 64% 0 mm
12:25 3.6 °C -3 °C 1011.7 hPa West 6.4 km/h 24.1 km/h 62% 0 mm
12:30 3.7 °C -2.9 °C 1011.7 hPa WNW 8 km/h 17.7 km/h 62% 0 mm
12:35 3.7 °C -2.9 °C 1011.7 hPa WNW 9.7 km/h 19.3 km/h 62% 0 mm
12:40 3.7 °C -3.2 °C 1011.7 hPa West 9.7 km/h 19.3 km/h 61% 0 mm
12:45 4.3 °C -2.2 °C 1011.4 hPa West 9.7 km/h 17.7 km/h 63% 0 mm
12:50 4.5 °C -2.2 °C 1011.7 hPa WSW 12.9 km/h 22.5 km/h 62% 0 mm
12:55 4.5 °C -2.2 °C 1011.7 hPa WNW 12.9 km/h 22.5 km/h 62% 0 mm
13:00 4.2 °C -2.9 °C 1011.7 hPa West 9.7 km/h 22.5 km/h 60% 0 mm
13:05 4.3 °C -2.2 °C 1011.4 hPa WNW 11.3 km/h 19.3 km/h 63% 0 mm
13:10 4 °C -2.8 °C 1011.7 hPa WNW 6.4 km/h 25.7 km/h 61% 0 mm
13:15 3.9 °C -2.9 °C 1011.7 hPa WNW 12.9 km/h 25.7 km/h 61% 0 mm
13:20 4 °C -2.8 °C 1011.4 hPa WNW 8 km/h 20.9 km/h 61% 0 mm
13:25 4.2 °C -3.1 °C 1011.4 hPa West 11.3 km/h 17.7 km/h 59% 0 mm
13:30 4.4 °C -2.7 °C 1011.4 hPa West 6.4 km/h 17.7 km/h 60% 0 mm
13:40 4.6 °C -2.8 °C 1011.4 hPa West 8 km/h 14.5 km/h 59% 0 mm
13:45 5.1 °C -1.8 °C 1011.4 hPa WSW 6.4 km/h 19.3 km/h 61% 0 mm
13:50 5.5 °C -1.4 °C 1011.4 hPa WNW 16.1 km/h 24.1 km/h 61% 0 mm
13:55 5.9 °C -2.2 °C 1011.1 hPa WNW 12.9 km/h 25.7 km/h 56% 0 mm
14:00 6.5 °C -1.4 °C 1011.4 hPa WSW 14.5 km/h 25.7 km/h 57% 0 mm
14:05 6.5 °C -1.9 °C 1011.1 hPa WSW 9.7 km/h 24.1 km/h 55% 0 mm
14:10 6.7 °C -1.2 °C 1011.1 hPa WSW 9.7 km/h 24.1 km/h 57% 0 mm
14:15 6.7 °C -1.7 °C 1011.1 hPa WSW 4.8 km/h 24.1 km/h 55% 0 mm
14:20 6.9 °C -1.6 °C 1011.1 hPa West 11.3 km/h 19.3 km/h 55% 0 mm
14:25 6.9 °C -1.3 °C 1011.1 hPa West 12.9 km/h 25.7 km/h 56% 0 mm
14:30 6.7 °C -2 °C 1011.1 hPa West 8 km/h 25.7 km/h 54% 0 mm
14:40 7 °C -2.2 °C 1011.1 hPa SW 12.9 km/h 20.9 km/h 52% 0 mm
14:45 7.1 °C -2.1 °C 1011.1 hPa West 6.4 km/h 20.9 km/h 52% 0 mm
14:50 7.2 °C -2.1 °C 1011.4 hPa WNW 11.3 km/h 17.7 km/h 52% 0 mm
14:55 6.9 °C -1.7 °C 1011.4 hPa West 11.3 km/h 17.7 km/h 54% 0 mm
15:00 7.1 °C -2.1 °C 1011.4 hPa West 12.9 km/h 20.9 km/h 52% 0 mm
15:05 7.2 °C -2 °C 1011.4 hPa West 12.9 km/h 24.1 km/h 52% 0 mm
15:10 7.3 °C -1.6 °C 1011.4 hPa WSW 8 km/h 24.1 km/h 53% 0 mm
15:15 7.7 °C -1 °C 1011.4 hPa WNW 9.7 km/h 19.3 km/h 54% 0 mm
15:20 7.9 °C -2.2 °C 1011.4 hPa SSW 11.3 km/h 19.3 km/h 49% 0 mm
15:25 7.2 °C -2.2 °C 1011.4 hPa WSW 11.3 km/h 20.9 km/h 51% 0 mm
15:30 7.2 °C -2.3 °C 1011.4 hPa WSW 9.7 km/h 20.9 km/h 51% 0 mm
15:40 7.2 °C -2 °C 1011.4 hPa West 9.7 km/h 20.9 km/h 52% 0 mm
15:45 7 °C -1.4 °C 1011.4 hPa West 8 km/h 19.3 km/h 55% 0 mm
15:50 7.1 °C -2.1 °C 1011.4 hPa WSW 8 km/h 20.9 km/h 52% 0 mm
15:55 7.2 °C -2.2 °C 1011.4 hPa West 6.4 km/h 20.9 km/h 51% 0 mm
16:00 7.4 °C -2.3 °C 1011.7 hPa WSW 11.3 km/h 19.3 km/h 50% 0 mm
16:05 7.2 °C -2.8 °C 1011.7 hPa WSW 14.5 km/h 20.9 km/h 49% 0 mm
16:10 7.2 °C -2.2 °C 1011.7 hPa West 8 km/h 25.7 km/h 51% 0 mm
16:15 7.3 °C -2.4 °C 1011.7 hPa WNW 11.3 km/h 25.7 km/h 50% 0 mm
16:20 6.8 °C -2.9 °C 1011.7 hPa West 11.3 km/h 19.3 km/h 50% 0 mm
16:25 6.7 °C -2.8 °C 1011.7 hPa WSW 8 km/h 19.3 km/h 51% 0 mm
16:30 6.8 °C -2.3 °C 1011.7 hPa West 11.3 km/h 16.1 km/h 52% 0 mm
16:35 6.7 °C -2.4 °C 1012.1 hPa WSW 8 km/h 17.7 km/h 52% 0 mm
16:40 6.8 °C -2.9 °C 1012.1 hPa West 9.7 km/h 17.7 km/h 50% 0 mm
16:45 7 °C -2.7 °C 1012.1 hPa WNW 8 km/h 16.1 km/h 50% 0 mm
16:50 7.2 °C -2.5 °C 1011.7 hPa West 8 km/h 16.1 km/h 50% 0 mm
16:55 7.1 °C -2.4 °C 1012.1 hPa WNW 6.4 km/h 19.3 km/h 51% 0 mm
17:00 7 °C -2.7 °C 1012.1 hPa WNW 11.3 km/h 19.3 km/h 50% 0 mm
17:05 6.8 °C -2.9 °C 1012.1 hPa WNW 11.3 km/h 16.1 km/h 50% 0 mm
17:10 6.8 °C -2.6 °C 1012.1 hPa WNW 12.9 km/h 20.9 km/h 51% 0 mm
17:15 6.8 °C -2.7 °C 1012.1 hPa WNW 11.3 km/h 20.9 km/h 51% 0 mm
17:20 6.6 °C -2.8 °C 1012.1 hPa NW 11.3 km/h 17.7 km/h 51% 0 mm
17:25 6.4 °C -2.4 °C 1012.4 hPa WNW 8 km/h 17.7 km/h 53% 0 mm
17:30 6.4 °C -2.8 °C 1012.4 hPa WNW 11.3 km/h 17.7 km/h 52% 0 mm
17:35 6.3 °C -2.8 °C 1012.4 hPa WNW 8 km/h 16.1 km/h 52% 0 mm
17:40 6.2 °C -2.4 °C 1012.4 hPa WNW 6.4 km/h 14.5 km/h 54% 0 mm
17:45 6.2 °C -2.9 °C 1012.4 hPa WNW 8 km/h 12.9 km/h 52% 0 mm
17:50 6.2 °C -2.7 °C 1012.4 hPa West 6.4 km/h 12.9 km/h 53% 0 mm
17:55 6.1 °C -2.8 °C 1012.4 hPa West 4.8 km/h 12.9 km/h 53% 0 mm
18:00 6.1 °C -2.6 °C 1012.4 hPa NW 6.4 km/h 11.3 km/h 54% 0 mm
18:05 6 °C -3.1 °C 1012.4 hPa NW 6.4 km/h 12.9 km/h 52% 0 mm
18:10 5.9 °C -2.9 °C 1012.4 hPa WNW 4.8 km/h 12.9 km/h 53% 0 mm
18:15 5.9 °C -2.7 °C 1012.4 hPa WNW 6.4 km/h 12.9 km/h 54% 0 mm
18:20 5.8 °C -3 °C 1012.4 hPa NNW 4.8 km/h 11.3 km/h 53% 0 mm
18:25 5.8 °C -2.8 °C 1012.4 hPa NW 1.6 km/h 9.7 km/h 54% 0 mm
18:30 5.8 °C -2.5 °C 1012.4 hPa Calm   6.4 km/h 55% 0 mm
18:35 5.8 °C -2.8 °C 1012.8 hPa NW 4.8 km/h 8 km/h 54% 0 mm
18:40 5.8 °C -2.5 °C 1012.8 hPa NW 3.2 km/h 8 km/h 55% 0 mm
18:45 5.8 °C -2.6 °C 1012.8 hPa NW 1.6 km/h 8 km/h 55% 0 mm
18:50 5.8 °C -2.8 °C 1012.8 hPa West 1.6 km/h 8 km/h 54% 0 mm
18:55 5.8 °C -2.6 °C 1013.1 hPa West 1.6 km/h 8 km/h 55% 0 mm
19:00 5.8 °C -2.6 °C 1013.1 hPa WNW 4.8 km/h 8 km/h 55% 0 mm
19:05 5.7 °C -2.9 °C 1013.1 hPa WNW 4.8 km/h 8 km/h 54% 0 mm
19:10 5.6 °C -2.7 °C 1013.1 hPa Calm   8 km/h 55% 0 mm
19:15 5.6 °C -2.7 °C 1013.1 hPa Calm   4.8 km/h 55% 0 mm
19:20 5.6 °C -2.8 °C 1013.4 hPa Calm   4.8 km/h 55% 0 mm
19:25 5.6 °C -2.3 °C 1013.4 hPa Calm   4.8 km/h 57% 0 mm
19:30 5.5 °C -2.3 °C 1013.4 hPa WNW 1.6 km/h 4.8 km/h 57% 0 mm
19:40 5.5 °C -1.7 °C 1013.4 hPa Calm     60% 0 mm
19:45 5.4 °C -1.7 °C 1013.8 hPa Calm   6.4 km/h 60% 0 mm
19:50 5.3 °C -2.3 °C 1013.8 hPa WNW 3.2 km/h 6.4 km/h 58% 0 mm
19:55 5.3 °C -2.1 °C 1013.8 hPa Calm   6.4 km/h 59% 0 mm
20:05 5.1 °C -0.9 °C 1013.8 hPa WSW 4.8 km/h 9.7 km/h 65% 0 mm
20:10 5.1 °C -0.4 °C 1014.1 hPa Calm   9.7 km/h 68% 0 mm
20:15 5.1 °C -0.6 °C 1014.1 hPa WSW 1.6 km/h 6.4 km/h 67% 0 mm
20:20 4.9 °C -0.7 °C 1014.1 hPa Calm   4.8 km/h 67% 0 mm
20:25 4.9 °C -0.9 °C 1014.1 hPa Calm     66% 0 mm
20:30 4.8 °C -1.4 °C 1014.1 hPa Calm     64% 0 mm
20:35 4.7 °C -1.5 °C 1014.1 hPa Calm     64% 0 mm
20:40 4.7 °C -0.9 °C 1014.4 hPa Calm     67% 0 mm
20:45 4.7 °C -0.9 °C 1014.4 hPa Calm   1.6 km/h 67% 0 mm
20:50 4.7 °C -0.6 °C 1014.4 hPa Calm   3.2 km/h 69% 0 mm
20:55 4.7 °C -0.3 °C 1014.4 hPa WSW 3.2 km/h 4.8 km/h 70% 0 mm
21:00 4.7 °C 0.1 °C 1014.4 hPa WSW 3.2 km/h 8 km/h 72% 0 mm
21:05 4.7 °C 0.1 °C 1014.4 hPa SW 3.2 km/h 8 km/h 72% 0 mm
21:10 4.7 °C 0.1 °C 1014.4 hPa SSW 3.2 km/h 8 km/h 72% 0 mm
21:15 4.7 °C 0.2 °C 1014.8 hPa SSW 1.6 km/h 8 km/h 73% 0 mm
21:20 4.6 °C 0.2 °C 1014.8 hPa Calm   4.8 km/h 73% 0 mm
21:25 4.6 °C 0.3 °C 1014.8 hPa SSW 1.6 km/h 6.4 km/h 74% 0 mm
21:30 4.5 °C 0.3 °C 1014.8 hPa SSW 1.6 km/h 8 km/h 74% 0 mm
21:35 4.4 °C 0.2 °C 1014.8 hPa SSW 1.6 km/h 8 km/h 74% 0.3 mm
21:40 4.4 °C 0.2 °C 1014.8 hPa Calm   6.4 km/h 74% 0.3 mm
21:45 4.3 °C -0.3 °C 1015.1 hPa Calm   3.2 km/h 72% 0.3 mm
21:50 4.2 °C -0.9 °C 1015.1 hPa Calm   6.4 km/h 69% 0.3 mm
21:55 4.2 °C -1.2 °C 1015.1 hPa SSW 3.2 km/h 6.4 km/h 68% 0.3 mm
22:00 4.2 °C -1 °C 1015.1 hPa Calm   6.4 km/h 69% 0.3 mm
22:05 4.1 °C -1.3 °C 1015.1 hPa Calm   6.4 km/h 68% 0.3 mm
22:10 4 °C -1.2 °C 1015.1 hPa SSW 1.6 km/h 6.4 km/h 69% 0.3 mm
22:15 3.8 °C -1.3 °C 1015.1 hPa SSW 3.2 km/h 6.4 km/h 69% 0.3 mm
22:20 3.7 °C -1.1 °C 1015.1 hPa Calm   6.4 km/h 71% 0.3 mm
22:25 3.6 °C -1.2 °C 1015.5 hPa SSW 1.6 km/h 6.4 km/h 71% 0.3 mm
22:30 3.5 °C -1.3 °C 1015.5 hPa WSW 3.2 km/h 9.7 km/h 71% 0.3 mm
22:35 3.5 °C -1.3 °C 1015.5 hPa West 4.8 km/h 9.7 km/h 71% 0.3 mm
22:40 3.4 °C -1.3 °C 1015.5 hPa WNW 4.8 km/h 9.7 km/h 71% 0.3 mm
22:45 3.4 °C -1.4 °C 1015.5 hPa WNW 3.2 km/h 8 km/h 71% 0.3 mm
22:50 3.4 °C -1.4 °C 1015.5 hPa Calm   9.7 km/h 71% 0.3 mm
22:55 3.3 °C -1.2 °C 1015.5 hPa WNW 6.4 km/h 9.7 km/h 72% 0.3 mm
23:00 3.3 °C -1.5 °C 1015.5 hPa WNW 4.8 km/h 11.3 km/h 71% 0.3 mm
23:05 3.3 °C -1.3 °C 1015.5 hPa WNW 4.8 km/h 11.3 km/h 72% 0.3 mm
23:10 3.2 °C -1.3 °C 1015.1 hPa WNW 6.4 km/h 11.3 km/h 72% 0.3 mm
23:15 3.2 °C -1.4 °C 1015.5 hPa WNW 3.2 km/h 11.3 km/h 72% 0.3 mm
23:20 3.2 °C -1.4 °C 1015.5 hPa Calm   8 km/h 72% 0.3 mm
23:25 3.2 °C -1.2 °C 1015.5 hPa NW 1.6 km/h 8 km/h 73% 0.3 mm
23:30 3.1 °C -1.4 °C 1015.5 hPa NW 1.6 km/h 9.7 km/h 72% 0.3 mm
23:35 3.1 °C -1.4 °C 1015.5 hPa NW 4.8 km/h 9.7 km/h 72% 0.3 mm
23:40 3.1 °C -1.5 °C 1015.5 hPa NW 3.2 km/h 8 km/h 72% 0.3 mm
23:45 3 °C -1.4 °C 1015.5 hPa NW 1.6 km/h 8 km/h 73% 0.3 mm
23:50 2.9 °C -1.4 °C 1015.5 hPa NW 3.2 km/h 8 km/h 73% 0.3 mm
23:55 2.9 °C -1.4 °C 1015.5 hPa NW 3.2 km/h 8 km/h 73% 0.3 mm
Westford Weather
Compliments of Weather Underground

 
 
Current Radar Loop:

Copyright © WestfordWeather.net 2007-2014. All rights reserved.